createdAt,value
2023-05-21T00:00:19.644Z,20.19
2023-05-21T00:01:19.767Z,20.22
2023-05-21T00:02:20.177Z,20.19
2023-05-21T00:03:20.163Z,20.19
2023-05-21T00:04:20.292Z,20.16
2023-05-21T00:05:20.457Z,20.14
2023-05-21T00:06:20.672Z,20.14
2023-05-21T00:07:20.818Z,20.13
2023-05-21T00:08:20.991Z,20.11
2023-05-21T00:09:21.140Z,20.11
2023-05-21T00:10:21.320Z,20.13
2023-05-21T00:11:21.494Z,20.09
2023-05-21T00:12:21.666Z,20.09
2023-05-21T00:13:21.825Z,20.06
2023-05-21T00:14:22.004Z,20.06
2023-05-21T00:15:22.168Z,20.06
2023-05-21T00:16:22.446Z,20.04
2023-05-21T00:17:22.514Z,20.03
2023-05-21T00:18:22.706Z,20.02
2023-05-21T00:19:22.933Z,20.00
2023-05-21T00:20:23.054Z,20.02
2023-05-21T00:21:23.235Z,19.96
2023-05-21T00:22:23.417Z,19.99
2023-05-21T00:23:23.616Z,19.95
2023-05-21T00:24:23.746Z,19.94
2023-05-21T00:25:24.022Z,19.94
2023-05-21T00:26:24.127Z,19.89
2023-05-21T00:27:24.284Z,19.89
2023-05-21T00:28:24.499Z,19.88
2023-05-21T00:29:24.656Z,19.88
2023-05-21T00:30:24.857Z,19.89
2023-05-21T00:31:25.013Z,19.88
2023-05-21T00:32:25.213Z,19.86
2023-05-21T00:33:25.377Z,19.85
2023-05-21T00:34:25.545Z,19.85
2023-05-21T00:35:25.697Z,19.84
2023-05-21T00:36:25.896Z,19.82
2023-05-21T00:37:26.085Z,19.84
2023-05-21T00:38:26.250Z,19.82
2023-05-21T00:39:26.414Z,19.82
2023-05-21T00:40:26.586Z,19.81
2023-05-21T00:41:26.771Z,19.81
2023-05-21T00:42:26.952Z,19.79
2023-05-21T00:43:27.103Z,19.77
2023-05-21T00:44:27.283Z,19.76
2023-05-21T00:45:27.446Z,19.76
2023-05-21T00:46:27.718Z,19.74
2023-05-21T00:47:27.805Z,19.74
2023-05-21T00:48:27.951Z,19.73
2023-05-21T00:49:28.112Z,19.71
2023-05-21T00:50:28.312Z,19.70
2023-05-21T00:51:28.488Z,19.70
2023-05-21T00:52:28.645Z,19.70
2023-05-21T00:53:28.820Z,19.69
2023-05-21T00:54:29.003Z,19.66
2023-05-21T00:55:29.163Z,19.66
2023-05-21T00:56:29.363Z,19.63
2023-05-21T00:57:29.518Z,19.59
2023-05-21T00:58:29.693Z,19.62
2023-05-21T00:59:29.887Z,19.56
2023-05-21T01:00:30.041Z,19.58
2023-05-21T01:01:30.293Z,19.56
2023-05-21T01:02:30.460Z,19.54
2023-05-21T01:03:30.758Z,19.54
2023-05-21T01:04:30.758Z,19.52
2023-05-21T01:05:30.929Z,19.54
2023-05-21T01:06:31.096Z,19.51
2023-05-21T01:07:31.275Z,19.48
2023-05-21T01:08:31.445Z,19.48
2023-05-21T01:09:31.646Z,19.47
2023-05-21T01:10:31.803Z,19.47
2023-05-21T01:11:31.959Z,19.45
2023-05-21T01:12:32.157Z,19.44
2023-05-21T01:13:32.311Z,19.45
2023-05-21T01:14:32.498Z,19.40
2023-05-21T01:15:32.690Z,19.37
2023-05-21T01:16:32.900Z,19.36
2023-05-21T01:17:33.025Z,19.33
2023-05-21T01:18:33.192Z,19.33
2023-05-21T01:19:33.354Z,19.31
2023-05-21T01:20:33.497Z,19.29
2023-05-21T01:21:33.647Z,19.31
2023-05-21T01:22:33.818Z,19.29
2023-05-21T01:23:33.993Z,19.26
2023-05-21T01:24:34.169Z,19.26
2023-05-21T01:25:34.599Z,19.24
2023-05-21T01:26:34.497Z,19.26
2023-05-21T01:27:34.662Z,19.24
2023-05-21T01:28:34.867Z,19.24
2023-05-21T01:29:35.034Z,19.21
2023-05-21T01:30:35.205Z,19.18
2023-05-21T01:31:35.375Z,19.18
2023-05-21T01:32:35.611Z,19.15
2023-05-21T01:33:35.774Z,19.14
2023-05-21T01:34:35.903Z,19.12
2023-05-21T01:35:36.323Z,19.14
2023-05-21T01:36:36.280Z,19.12
2023-05-21T01:37:36.455Z,19.09
2023-05-21T01:38:36.610Z,19.08
2023-05-21T01:39:36.806Z,19.08
2023-05-21T01:40:36.985Z,19.04
2023-05-21T01:41:37.181Z,19.02
2023-05-21T01:42:37.385Z,19.02
2023-05-21T01:43:37.554Z,19.00
2023-05-21T01:44:37.724Z,18.99
2023-05-21T01:45:37.986Z,18.98
2023-05-21T01:46:38.090Z,18.98
2023-05-21T01:47:38.280Z,18.95
2023-05-21T01:48:38.396Z,18.93
2023-05-21T01:49:38.578Z,18.92
2023-05-21T01:50:38.749Z,18.90
2023-05-21T01:51:38.923Z,18.88
2023-05-21T01:52:39.115Z,18.86
2023-05-21T01:53:39.286Z,18.88
2023-05-21T01:54:39.440Z,18.84
2023-05-21T01:55:39.667Z,18.84
2023-05-21T01:56:39.794Z,18.83
2023-05-21T01:57:39.975Z,18.81
2023-05-21T01:58:40.139Z,18.80
2023-05-21T01:59:40.331Z,18.77
2023-05-21T02:00:40.506Z,18.77
2023-05-21T02:01:40.746Z,18.74
2023-05-21T02:02:40.932Z,18.73
2023-05-21T02:03:41.115Z,18.70
2023-05-21T02:04:41.202Z,18.68
2023-05-21T02:05:41.381Z,18.68
2023-05-21T02:06:41.553Z,18.66
2023-05-21T02:07:41.714Z,18.63
2023-05-21T02:08:41.869Z,18.63
2023-05-21T02:09:42.063Z,18.62
2023-05-21T02:10:42.253Z,18.62
2023-05-21T02:11:42.409Z,18.60
2023-05-21T02:12:42.563Z,18.59
2023-05-21T02:13:42.818Z,18.58
2023-05-21T02:14:42.939Z,18.55
2023-05-21T02:15:43.106Z,18.56
2023-05-21T02:16:43.477Z,18.53
2023-05-21T02:17:43.458Z,18.53
2023-05-21T02:18:43.728Z,18.52
2023-05-21T02:19:43.800Z,18.50
2023-05-21T02:20:43.991Z,18.45
2023-05-21T02:21:44.173Z,18.44
2023-05-21T02:22:44.353Z,18.43
2023-05-21T02:23:44.503Z,18.41
2023-05-21T02:24:44.712Z,18.43
2023-05-21T02:25:44.904Z,18.41
2023-05-21T02:26:45.094Z,18.43
2023-05-21T02:27:45.244Z,18.43
2023-05-21T02:28:45.403Z,18.41
2023-05-21T02:29:45.631Z,18.41
2023-05-21T02:30:45.785Z,18.40
2023-05-21T02:31:45.989Z,18.38
2023-05-21T02:32:46.183Z,18.40
2023-05-21T02:33:46.396Z,18.38
2023-05-21T02:34:46.507Z,18.38
2023-05-21T02:35:46.684Z,18.38
2023-05-21T02:36:46.836Z,18.37
2023-05-21T02:37:47.033Z,18.37
2023-05-21T02:38:47.195Z,18.35
2023-05-21T02:39:47.377Z,18.35
2023-05-21T02:40:47.535Z,18.33
2023-05-21T02:41:47.747Z,18.31
2023-05-21T02:42:47.898Z,18.29
2023-05-21T02:43:48.092Z,18.29
2023-05-21T02:44:48.261Z,18.26
2023-05-21T02:45:48.496Z,18.25
2023-05-21T02:46:48.604Z,18.25
2023-05-21T02:47:48.817Z,18.23
2023-05-21T02:48:48.953Z,18.20
2023-05-21T02:49:49.109Z,18.19
2023-05-21T02:50:49.300Z,18.22
2023-05-21T02:51:49.486Z,18.20
2023-05-21T02:52:49.656Z,18.18
2023-05-21T02:53:49.829Z,18.18
2023-05-21T02:54:49.997Z,18.16
2023-05-21T02:55:50.187Z,18.15
2023-05-21T02:56:50.364Z,18.15
2023-05-21T02:57:50.555Z,18.15
2023-05-21T02:58:50.688Z,18.13
2023-05-21T02:59:50.861Z,18.15
2023-05-21T03:00:51.023Z,18.15
2023-05-21T03:01:51.298Z,18.15
2023-05-21T03:02:51.496Z,18.15
2023-05-21T03:03:51.592Z,18.15
2023-05-21T03:04:51.800Z,18.18
2023-05-21T03:05:51.923Z,18.18
2023-05-21T03:06:52.114Z,18.15
2023-05-21T03:07:52.317Z,18.16
2023-05-21T03:08:52.462Z,18.15
2023-05-21T03:09:52.639Z,18.16
2023-05-21T03:10:52.809Z,18.15
2023-05-21T03:11:53.016Z,18.15
2023-05-21T03:12:53.176Z,18.13
2023-05-21T03:13:53.319Z,18.16
2023-05-21T03:14:53.496Z,18.16
2023-05-21T03:15:53.680Z,18.16
2023-05-21T03:16:53.882Z,18.18
2023-05-21T03:17:54.270Z,18.20
2023-05-21T03:18:54.233Z,18.20
2023-05-21T03:19:54.362Z,18.23
2023-05-21T03:20:54.513Z,18.22
2023-05-21T03:21:54.759Z,18.26
2023-05-21T03:22:54.862Z,18.28
2023-05-21T03:23:55.049Z,18.25
2023-05-21T03:24:55.206Z,18.25
2023-05-21T03:25:55.395Z,18.29
2023-05-21T03:26:55.568Z,18.29
2023-05-21T03:27:55.726Z,18.33
2023-05-21T03:28:55.893Z,18.33
2023-05-21T03:29:56.076Z,18.35
2023-05-21T03:30:56.242Z,18.38
2023-05-21T03:31:56.454Z,18.38
2023-05-21T03:32:56.632Z,18.40
2023-05-21T03:33:56.734Z,18.41
2023-05-21T03:34:56.928Z,18.43
2023-05-21T03:35:57.102Z,18.44
2023-05-21T03:36:57.266Z,18.45
2023-05-21T03:37:57.447Z,18.50
2023-05-21T03:38:57.599Z,18.56
2023-05-21T03:39:57.792Z,18.58
2023-05-21T03:40:57.973Z,18.58
2023-05-21T03:41:58.135Z,18.62
2023-05-21T03:42:58.287Z,18.65
2023-05-21T03:43:58.463Z,18.68
2023-05-21T03:44:58.655Z,18.73
2023-05-21T03:45:58.894Z,18.75
2023-05-21T03:46:58.998Z,18.80
2023-05-21T03:47:59.224Z,18.86
2023-05-21T03:48:59.354Z,18.90
2023-05-21T03:49:59.557Z,18.96
2023-05-21T03:50:59.698Z,18.99
2023-05-21T03:51:59.904Z,19.04
2023-05-21T03:53:00.053Z,19.08
2023-05-21T03:54:00.281Z,19.12
2023-05-21T03:55:00.425Z,19.16
2023-05-21T03:56:00.552Z,19.22
2023-05-21T03:57:00.741Z,19.27
2023-05-21T03:58:00.899Z,19.27
2023-05-21T03:59:01.094Z,19.31
2023-05-21T04:00:01.282Z,19.37
2023-05-21T04:01:01.428Z,19.47
2023-05-21T04:02:01.613Z,19.52
2023-05-21T04:03:01.944Z,19.58
2023-05-21T04:04:02.050Z,19.62
2023-05-21T04:05:02.138Z,19.67
2023-05-21T04:06:02.333Z,19.70
2023-05-21T04:07:02.498Z,19.74
2023-05-21T04:08:02.695Z,19.76
2023-05-21T04:09:02.851Z,19.77
2023-05-21T04:10:03.035Z,19.81
2023-05-21T04:11:03.231Z,19.84
2023-05-21T04:12:03.438Z,19.88
2023-05-21T04:13:03.575Z,19.94
2023-05-21T04:14:03.770Z,19.94
2023-05-21T04:15:03.908Z,19.99
2023-05-21T04:16:04.103Z,20.03
2023-05-21T04:17:04.276Z,20.09
2023-05-21T04:18:04.499Z,20.11
2023-05-21T04:19:04.653Z,20.14
2023-05-21T04:20:04.819Z,20.18
2023-05-21T04:21:05.023Z,20.21
2023-05-21T04:22:05.182Z,20.26
2023-05-21T04:23:05.347Z,20.29
2023-05-21T04:24:05.518Z,20.32
2023-05-21T04:25:05.702Z,20.37
2023-05-21T04:26:05.886Z,20.41
2023-05-21T04:27:06.082Z,20.50
2023-05-21T04:28:06.278Z,20.50
2023-05-21T04:29:06.428Z,20.58
2023-05-21T04:30:06.619Z,20.62
2023-05-21T04:31:06.812Z,20.69
2023-05-21T04:32:06.993Z,20.77
2023-05-21T04:33:07.214Z,20.80
2023-05-21T04:34:07.311Z,20.84
2023-05-21T04:35:07.517Z,20.88
2023-05-21T04:36:07.673Z,20.95
2023-05-21T04:37:07.829Z,21.02
2023-05-21T04:38:08.010Z,21.05
2023-05-21T04:39:08.192Z,21.11
2023-05-21T04:40:08.383Z,21.15
2023-05-21T04:41:08.534Z,21.24
2023-05-21T04:42:08.708Z,21.30
2023-05-21T04:43:08.896Z,21.35
2023-05-21T04:44:09.071Z,21.43
2023-05-21T04:45:09.237Z,21.51
2023-05-21T04:46:09.453Z,21.55
2023-05-21T04:47:09.660Z,21.57
2023-05-21T04:48:09.764Z,21.60
2023-05-21T04:49:09.968Z,21.64
2023-05-21T04:50:10.198Z,21.69
2023-05-21T04:51:10.320Z,21.70
2023-05-21T04:52:10.492Z,21.75
2023-05-21T04:53:10.663Z,21.79
2023-05-21T04:54:10.853Z,21.83
2023-05-21T04:55:11.032Z,21.91
2023-05-21T04:56:11.211Z,21.95
2023-05-21T04:57:11.378Z,22.04
2023-05-21T04:58:11.575Z,22.08
2023-05-21T04:59:11.733Z,22.11
2023-05-21T05:00:11.934Z,22.14
2023-05-21T05:01:12.127Z,22.17
2023-05-21T05:02:12.223Z,22.20
2023-05-21T05:03:12.458Z,22.25
2023-05-21T05:04:12.599Z,22.29
2023-05-21T05:05:12.782Z,22.35
2023-05-21T05:06:12.947Z,22.41
2023-05-21T05:07:13.121Z,22.51
2023-05-21T05:08:15.753Z,22.55
2023-05-21T05:09:13.473Z,22.63
2023-05-21T05:10:13.688Z,22.68
2023-05-21T05:11:13.819Z,22.75
2023-05-21T05:12:14.011Z,22.83
2023-05-21T05:13:14.181Z,22.88
2023-05-21T05:14:14.372Z,22.98
2023-05-21T05:15:14.550Z,23.00
2023-05-21T05:16:14.738Z,23.06
2023-05-21T05:17:14.941Z,23.13
2023-05-21T05:18:15.081Z,23.13
2023-05-21T05:19:15.335Z,23.21
2023-05-21T05:20:15.443Z,23.31
2023-05-21T05:21:15.585Z,23.40
2023-05-21T05:22:15.770Z,23.47
2023-05-21T05:23:15.928Z,23.58
2023-05-21T05:24:16.148Z,23.62
2023-05-21T05:25:16.271Z,23.65
2023-05-21T05:26:16.441Z,23.73
2023-05-21T05:27:16.616Z,23.78
2023-05-21T05:28:16.806Z,23.86
2023-05-21T05:29:16.983Z,23.91
2023-05-21T05:30:17.156Z,23.99
2023-05-21T05:31:17.363Z,24.02
2023-05-21T05:32:17.515Z,24.05
2023-05-21T05:33:17.695Z,24.02
2023-05-21T05:34:17.872Z,24.03
2023-05-21T05:35:18.047Z,24.06
2023-05-21T05:36:18.235Z,24.11
2023-05-21T05:37:18.395Z,24.16
2023-05-21T05:38:18.570Z,24.14
2023-05-21T05:39:18.707Z,24.16
2023-05-21T05:40:18.877Z,24.11
2023-05-21T05:41:19.130Z,24.14
2023-05-21T05:42:19.239Z,24.16
2023-05-21T05:43:19.416Z,24.13
2023-05-21T05:44:19.591Z,24.14
2023-05-21T05:45:19.817Z,24.13
2023-05-21T05:46:19.998Z,24.11
2023-05-21T05:47:20.154Z,24.10
2023-05-21T05:48:20.306Z,24.10
2023-05-21T05:49:20.486Z,24.05
2023-05-21T05:50:20.666Z,23.98
2023-05-21T05:51:20.848Z,23.93
2023-05-21T05:52:21.043Z,23.88
2023-05-21T05:53:21.217Z,23.88
2023-05-21T05:54:21.367Z,23.84
2023-05-21T05:55:21.540Z,23.86
2023-05-21T05:56:21.729Z,23.84
2023-05-21T05:57:21.906Z,23.80
2023-05-21T05:58:22.085Z,23.83
2023-05-21T05:59:22.257Z,23.83
2023-05-21T06:00:22.444Z,23.80
2023-05-21T06:01:22.681Z,23.78
2023-05-21T06:02:22.890Z,23.78
2023-05-21T06:03:23.107Z,23.78
2023-05-21T06:04:23.157Z,23.78
2023-05-21T06:05:23.374Z,23.76
2023-05-21T06:06:23.599Z,23.74
2023-05-21T06:07:23.734Z,23.73
2023-05-21T06:08:23.868Z,23.69
2023-05-21T06:09:24.058Z,23.77
2023-05-21T06:10:24.227Z,23.84
2023-05-21T06:11:24.419Z,23.91
2023-05-21T06:12:24.562Z,23.95
2023-05-21T06:13:24.753Z,24.05
2023-05-21T06:14:24.910Z,24.13
2023-05-21T06:15:25.075Z,24.20
2023-05-21T06:16:25.264Z,24.29
2023-05-21T06:17:25.430Z,24.39
2023-05-21T06:18:25.578Z,24.53
2023-05-21T06:19:25.863Z,24.61
2023-05-21T06:20:25.961Z,24.69
2023-05-21T06:21:26.144Z,24.78
2023-05-21T06:22:26.293Z,24.86
2023-05-21T06:23:26.485Z,24.98
2023-05-21T06:24:26.655Z,25.22
2023-05-21T06:25:26.852Z,25.55
2023-05-21T06:26:27.003Z,25.95
2023-05-21T06:27:27.185Z,26.36
2023-05-21T06:28:27.351Z,26.65
2023-05-21T06:29:27.599Z,26.99
2023-05-21T06:30:27.804Z,27.27
2023-05-21T06:31:27.898Z,27.45
2023-05-21T06:32:28.175Z,27.68
2023-05-21T06:33:28.324Z,27.92
2023-05-21T06:34:28.401Z,28.17
2023-05-21T06:35:28.607Z,28.32
2023-05-21T06:36:28.761Z,28.48
2023-05-21T06:37:28.942Z,28.70
2023-05-21T06:38:29.132Z,28.94
2023-05-21T06:39:29.339Z,29.14
2023-05-21T06:40:29.536Z,29.31
2023-05-21T06:41:29.657Z,29.44
2023-05-21T06:42:29.832Z,29.68
2023-05-21T06:43:30.005Z,29.94
2023-05-21T06:44:30.200Z,30.24
2023-05-21T06:45:30.395Z,30.51
2023-05-21T06:46:30.594Z,30.81
2023-05-21T06:47:30.764Z,31.14
2023-05-21T06:48:30.874Z,31.43
2023-05-21T06:49:31.074Z,31.64
2023-05-21T06:50:31.227Z,31.94
2023-05-21T06:51:31.398Z,32.18
2023-05-21T06:52:31.562Z,32.43
2023-05-21T06:53:31.746Z,32.56
2023-05-21T06:54:31.916Z,32.67
2023-05-21T06:55:32.088Z,32.82
2023-05-21T06:56:32.273Z,33.01
2023-05-21T06:57:32.463Z,33.27
2023-05-21T06:58:32.628Z,33.45
2023-05-21T06:59:32.784Z,33.58
2023-05-21T07:00:32.968Z,33.69
2023-05-21T07:01:33.254Z,33.80
2023-05-21T07:02:33.427Z,33.89
2023-05-21T07:03:33.531Z,34.06
2023-05-21T07:04:33.656Z,34.23
2023-05-21T07:05:33.900Z,34.42
2023-05-21T07:06:34.036Z,34.64
2023-05-21T07:07:34.227Z,34.90
2023-05-21T07:08:34.360Z,35.14
2023-05-21T07:09:34.556Z,35.39
2023-05-21T07:10:34.740Z,35.61
2023-05-21T07:11:34.922Z,35.66
2023-05-21T07:12:35.096Z,35.71
2023-05-21T07:13:35.276Z,35.79
2023-05-21T07:14:35.462Z,35.76
2023-05-21T07:15:35.835Z,35.79
2023-05-21T07:16:35.845Z,35.85
2023-05-21T07:17:36.083Z,35.90
2023-05-21T07:18:36.189Z,36.00
2023-05-21T07:19:36.350Z,36.07
2023-05-21T07:20:36.539Z,36.18
2023-05-21T07:21:36.743Z,36.21
2023-05-21T07:22:36.886Z,36.21
2023-05-21T07:23:37.069Z,36.20
2023-05-21T07:24:37.258Z,36.12
2023-05-21T07:25:37.699Z,36.17
2023-05-21T07:26:37.627Z,36.23
2023-05-21T07:27:37.767Z,36.31
2023-05-21T07:28:37.949Z,36.28
2023-05-21T07:29:38.129Z,36.36
2023-05-21T07:30:38.324Z,36.43
2023-05-21T07:31:38.546Z,36.46
2023-05-21T07:32:38.703Z,36.57
2023-05-21T07:33:38.857Z,36.72
2023-05-21T07:34:39.040Z,36.89
2023-05-21T07:35:39.323Z,36.89
2023-05-21T07:36:39.402Z,36.89
2023-05-21T07:37:39.628Z,36.92
2023-05-21T07:38:39.719Z,36.89
2023-05-21T07:39:39.894Z,36.57
2023-05-21T07:40:40.089Z,36.31
2023-05-21T07:41:40.280Z,36.18
2023-05-21T07:42:40.436Z,36.07
2023-05-21T07:43:40.648Z,36.08
2023-05-21T07:44:40.786Z,36.20
2023-05-21T07:45:41.002Z,36.28
2023-05-21T07:46:41.221Z,36.43
2023-05-21T07:47:41.380Z,36.46
2023-05-21T07:48:41.507Z,36.51
2023-05-21T07:49:41.665Z,36.58
2023-05-21T07:50:41.813Z,36.62
2023-05-21T07:51:42.002Z,36.68
2023-05-21T07:52:42.224Z,36.74
2023-05-21T07:53:42.353Z,36.84
2023-05-21T07:54:42.521Z,36.88
2023-05-21T07:55:42.678Z,36.84
2023-05-21T07:56:42.850Z,36.72
2023-05-21T07:57:43.030Z,36.62
2023-05-21T07:58:43.219Z,36.45
2023-05-21T07:59:43.397Z,36.47
2023-05-21T08:00:43.576Z,36.52
2023-05-21T08:01:43.757Z,36.47
2023-05-21T08:02:44.066Z,36.68
2023-05-21T08:03:44.278Z,36.81
2023-05-21T08:04:44.340Z,36.92
2023-05-21T08:05:44.490Z,36.81
2023-05-21T08:06:44.644Z,37.01
2023-05-21T08:07:44.854Z,37.20
2023-05-21T08:08:44.991Z,37.40
2023-05-21T08:09:45.161Z,37.70
2023-05-21T08:10:45.363Z,37.80
2023-05-21T08:11:45.532Z,37.89
2023-05-21T08:12:45.701Z,38.08
2023-05-21T08:13:45.878Z,38.08
2023-05-21T08:14:46.022Z,38.05
2023-05-21T08:15:46.210Z,38.14
2023-05-21T08:16:46.506Z,38.30
2023-05-21T08:17:46.624Z,38.46
2023-05-21T08:18:46.784Z,38.67
2023-05-21T08:19:46.896Z,38.83
2023-05-21T08:20:47.056Z,38.89
2023-05-21T08:21:47.240Z,38.76
2023-05-21T08:22:47.437Z,38.52
2023-05-21T08:23:47.580Z,38.45
2023-05-21T08:24:47.755Z,38.49
2023-05-21T08:25:47.947Z,38.60
2023-05-21T08:26:48.101Z,38.68
2023-05-21T08:27:49.925Z,38.68
2023-05-21T08:28:48.440Z,38.67
2023-05-21T08:29:48.636Z,38.62
2023-05-21T08:30:48.853Z,38.48
2023-05-21T08:31:49.073Z,38.31
2023-05-21T08:32:49.220Z,38.28
2023-05-21T08:33:49.331Z,38.33
2023-05-21T08:34:49.509Z,38.40
2023-05-21T08:35:49.730Z,38.46
2023-05-21T08:36:49.867Z,38.54
2023-05-21T08:37:50.045Z,38.57
2023-05-21T08:38:50.293Z,38.62
2023-05-21T08:39:50.402Z,38.67
2023-05-21T08:40:50.590Z,38.69
2023-05-21T08:41:50.783Z,38.77
2023-05-21T08:42:50.932Z,38.79
2023-05-21T08:43:52.546Z,38.77
2023-05-21T08:44:51.277Z,38.74
2023-05-21T08:45:51.470Z,38.71
2023-05-21T08:46:51.616Z,38.86
2023-05-21T08:47:51.850Z,39.09
2023-05-21T08:48:51.949Z,39.30
2023-05-21T08:49:52.136Z,39.36
2023-05-21T08:50:52.350Z,39.40
2023-05-21T08:51:52.508Z,39.40
2023-05-21T08:52:52.674Z,39.33
2023-05-21T08:53:52.838Z,39.24
2023-05-21T08:54:52.988Z,39.15
2023-05-21T08:55:53.189Z,39.21
2023-05-21T08:56:53.352Z,39.36
2023-05-21T08:57:53.517Z,39.52
2023-05-21T08:58:53.681Z,39.65
2023-05-21T08:59:53.862Z,39.74
2023-05-21T09:00:54.062Z,39.59
2023-05-21T09:01:54.209Z,39.51
2023-05-21T09:02:54.717Z,39.44
2023-05-21T09:03:59.094Z,39.40
2023-05-21T09:04:55.737Z,39.38
2023-05-21T09:05:54.926Z,39.30
2023-05-21T09:06:55.073Z,39.24
2023-05-21T09:07:55.262Z,39.21
2023-05-21T09:08:55.400Z,39.26
2023-05-21T09:09:55.590Z,39.29
2023-05-21T09:10:55.746Z,39.11
2023-05-21T09:11:55.980Z,39.03
2023-05-21T09:12:56.111Z,38.71
2023-05-21T09:13:56.302Z,38.36
2023-05-21T09:14:56.500Z,38.05
2023-05-21T09:15:56.662Z,37.92
2023-05-21T09:16:56.995Z,37.94
2023-05-21T09:17:57.097Z,37.92
2023-05-21T09:18:57.293Z,37.97
2023-05-21T09:19:57.420Z,38.05
2023-05-21T09:20:57.628Z,38.09
2023-05-21T09:21:57.773Z,38.12
2023-05-21T09:22:57.908Z,38.14
2023-05-21T09:23:58.109Z,38.04
2023-05-21T09:24:58.252Z,37.93
2023-05-21T09:25:58.446Z,37.92
2023-05-21T09:26:58.597Z,37.83
2023-05-21T09:27:58.794Z,37.87
2023-05-21T09:28:58.962Z,37.83
2023-05-21T09:29:59.120Z,37.78
2023-05-21T09:30:59.326Z,37.71
2023-05-21T09:31:59.529Z,37.77
2023-05-21T09:32:59.768Z,37.78
2023-05-21T09:33:59.851Z,37.87
2023-05-21T09:35:00.021Z,37.99
2023-05-21T09:36:00.210Z,38.27
2023-05-21T09:37:00.395Z,38.57
2023-05-21T09:38:00.592Z,38.76
2023-05-21T09:39:00.742Z,39.06
2023-05-21T09:40:00.928Z,39.33
2023-05-21T09:41:01.102Z,39.43
2023-05-21T09:42:01.275Z,39.56
2023-05-21T09:43:01.405Z,39.70
2023-05-21T09:44:01.621Z,39.85
2023-05-21T09:45:01.782Z,40.00
2023-05-21T09:46:02.393Z,40.09
2023-05-21T09:47:02.103Z,40.08
2023-05-21T09:48:02.322Z,40.31
2023-05-21T09:49:02.428Z,40.59
2023-05-21T09:50:02.619Z,40.85
2023-05-21T09:51:02.773Z,40.96
2023-05-21T09:52:02.971Z,41.06
2023-05-21T09:53:03.127Z,41.02
2023-05-21T09:54:03.329Z,41.00
2023-05-21T09:55:03.475Z,41.03
2023-05-21T09:56:03.667Z,41.15
2023-05-21T09:57:03.845Z,41.43
2023-05-21T09:58:03.992Z,41.49
2023-05-21T09:59:04.210Z,41.75
2023-05-21T10:00:04.366Z,41.66
2023-05-21T10:01:04.538Z,41.49
2023-05-21T10:02:04.750Z,41.57
2023-05-21T10:03:04.924Z,41.80
2023-05-21T10:04:05.059Z,41.83
2023-05-21T10:05:05.197Z,41.71
2023-05-21T10:06:05.405Z,41.50
2023-05-21T10:07:05.545Z,41.29
2023-05-21T10:08:05.734Z,41.07
2023-05-21T10:09:06.090Z,40.72
2023-05-21T10:10:06.045Z,40.15
2023-05-21T10:11:06.253Z,39.71
2023-05-21T10:12:06.400Z,39.40
2023-05-21T10:13:06.581Z,38.99
2023-05-21T10:14:06.751Z,38.61
2023-05-21T10:15:06.984Z,38.26
2023-05-21T10:16:07.174Z,37.93
2023-05-21T10:17:07.288Z,37.60
2023-05-21T10:18:07.585Z,37.26
2023-05-21T10:19:07.664Z,36.91
2023-05-21T10:20:07.833Z,36.42
2023-05-21T10:21:07.966Z,35.92
2023-05-21T10:22:08.133Z,35.48
2023-05-21T10:23:08.307Z,35.00
2023-05-21T10:24:08.460Z,34.64
2023-05-21T10:25:08.683Z,34.36
2023-05-21T10:26:08.842Z,34.14
2023-05-21T10:27:09.001Z,33.92
2023-05-21T10:28:09.164Z,33.84
2023-05-21T10:29:09.370Z,33.80
2023-05-21T10:30:09.531Z,33.71
2023-05-21T10:31:09.741Z,33.71
2023-05-21T10:32:09.889Z,33.67
2023-05-21T10:33:10.092Z,33.53
2023-05-21T10:34:10.216Z,33.45
2023-05-21T10:35:10.414Z,33.40
2023-05-21T10:36:10.570Z,33.34
2023-05-21T10:37:10.772Z,33.32
2023-05-21T10:38:10.933Z,33.37
2023-05-21T10:39:11.148Z,33.39
2023-05-21T10:40:11.289Z,33.45
2023-05-21T10:41:11.465Z,33.50
2023-05-21T10:42:11.614Z,33.55
2023-05-21T10:43:11.797Z,33.57
2023-05-21T10:44:11.968Z,33.59
2023-05-21T10:45:12.129Z,33.62
2023-05-21T10:46:12.407Z,33.57
2023-05-21T10:47:12.439Z,33.55
2023-05-21T10:48:12.682Z,33.53
2023-05-21T10:49:12.785Z,33.62
2023-05-21T10:50:12.972Z,33.65
2023-05-21T10:51:13.162Z,33.74
2023-05-21T10:52:13.401Z,33.83
2023-05-21T10:53:13.548Z,33.96
2023-05-21T10:54:13.678Z,34.05
2023-05-21T10:55:13.863Z,34.10
2023-05-21T10:56:14.009Z,34.14
2023-05-21T10:57:14.238Z,34.21
2023-05-21T10:58:14.381Z,34.25
2023-05-21T10:59:14.536Z,34.29
2023-05-21T11:00:14.722Z,34.30
2023-05-21T11:01:14.926Z,34.35
2023-05-21T11:02:15.100Z,34.36
2023-05-21T11:03:15.315Z,34.38
2023-05-21T11:04:15.407Z,34.38
2023-05-21T11:05:15.620Z,34.30
2023-05-21T11:06:15.777Z,34.17
2023-05-21T11:07:15.955Z,34.06
2023-05-21T11:08:16.116Z,33.94
2023-05-21T11:09:16.318Z,33.77
2023-05-21T11:10:16.479Z,33.57
2023-05-21T11:11:16.680Z,33.45
2023-05-21T11:12:16.864Z,33.40
2023-05-21T11:13:17.078Z,33.40
2023-05-21T11:14:18.741Z,33.37
2023-05-21T11:15:17.507Z,33.27
2023-05-21T11:16:17.564Z,33.12
2023-05-21T11:17:17.748Z,33.09
2023-05-21T11:18:17.913Z,33.02
2023-05-21T11:19:18.121Z,32.96
2023-05-21T11:20:18.289Z,33.02
2023-05-21T11:21:18.478Z,33.05
2023-05-21T11:22:18.603Z,33.05
2023-05-21T11:23:18.771Z,33.09
2023-05-21T11:24:18.940Z,33.05
2023-05-21T11:25:19.121Z,33.08
2023-05-21T11:26:19.308Z,33.11
2023-05-21T11:27:19.497Z,33.12
2023-05-21T11:28:19.656Z,33.14
2023-05-21T11:29:19.824Z,33.12
2023-05-21T11:30:20.015Z,33.11
2023-05-21T11:31:20.229Z,33.07
2023-05-21T11:32:20.334Z,33.05
2023-05-21T11:33:20.548Z,33.00
2023-05-21T11:34:20.699Z,33.01
2023-05-21T11:35:20.895Z,32.97
2023-05-21T11:36:21.053Z,32.90
2023-05-21T11:37:21.220Z,32.97
2023-05-21T11:38:21.406Z,32.97
2023-05-21T11:39:21.633Z,33.02
2023-05-21T11:40:21.786Z,33.04
2023-05-21T11:41:21.951Z,33.12
2023-05-21T11:42:22.128Z,33.09
2023-05-21T11:43:22.304Z,33.04
2023-05-21T11:44:22.505Z,33.00
2023-05-21T11:45:22.693Z,32.95
2023-05-21T11:46:22.827Z,32.90
2023-05-21T11:47:23.031Z,32.83
2023-05-21T11:48:24.451Z,32.82
2023-05-21T11:49:23.315Z,32.85
2023-05-21T11:50:23.539Z,32.85
2023-05-21T11:51:23.657Z,32.78
2023-05-21T11:52:23.822Z,32.77
2023-05-21T11:53:23.994Z,32.85
2023-05-21T11:54:24.200Z,32.92
2023-05-21T11:55:24.335Z,32.96
2023-05-21T11:56:24.497Z,33.02
2023-05-21T11:57:24.686Z,33.05
2023-05-21T11:58:24.894Z,33.07
2023-05-21T11:59:25.075Z,33.14
2023-05-21T12:00:25.227Z,33.12
2023-05-21T12:01:25.397Z,33.11
2023-05-21T12:02:25.630Z,32.97
2023-05-21T12:03:25.819Z,32.92
2023-05-21T12:04:25.924Z,32.87
2023-05-21T12:05:26.082Z,32.87
2023-05-21T12:06:26.286Z,32.85
2023-05-21T12:07:26.445Z,32.83
2023-05-21T12:08:26.640Z,32.78
2023-05-21T12:09:26.794Z,32.82
2023-05-21T12:10:26.951Z,32.78
2023-05-21T12:11:27.129Z,32.82
2023-05-21T12:12:35.313Z,32.82
2023-05-21T12:13:28.492Z,32.85
2023-05-21T12:14:27.719Z,32.87
2023-05-21T12:15:27.970Z,32.83
2023-05-21T12:16:28.019Z,32.82
2023-05-21T12:17:28.259Z,32.78
2023-05-21T12:18:28.396Z,32.70
2023-05-21T12:19:28.636Z,32.63
2023-05-21T12:20:28.915Z,32.55
2023-05-21T12:21:28.901Z,32.53
2023-05-21T12:22:29.073Z,32.48
2023-05-21T12:23:29.217Z,32.46
2023-05-21T12:24:29.415Z,32.45
2023-05-21T12:25:29.566Z,32.43
2023-05-21T12:26:29.745Z,32.43
2023-05-21T12:27:29.979Z,32.43
2023-05-21T12:28:30.078Z,32.46
2023-05-21T12:29:30.268Z,32.48
2023-05-21T12:30:30.441Z,32.51
2023-05-21T12:31:30.708Z,32.51
2023-05-21T12:32:30.885Z,32.55
2023-05-21T12:33:31.036Z,32.55
2023-05-21T12:34:31.174Z,32.52
2023-05-21T12:35:31.390Z,32.52
2023-05-21T12:36:31.557Z,32.52
2023-05-21T12:37:31.740Z,32.51
2023-05-21T12:38:31.900Z,32.52
2023-05-21T12:39:32.048Z,32.58
2023-05-21T12:40:32.217Z,32.60
2023-05-21T12:41:32.455Z,32.67
2023-05-21T12:42:32.548Z,32.71
2023-05-21T12:43:32.727Z,32.74
2023-05-21T12:44:34.406Z,32.74
2023-05-21T12:45:33.117Z,32.65
2023-05-21T12:46:33.391Z,32.63
2023-05-21T12:47:33.499Z,32.59
2023-05-21T12:48:33.607Z,32.59
2023-05-21T12:49:33.778Z,32.59
2023-05-21T12:50:33.973Z,32.59
2023-05-21T12:51:34.146Z,32.59
2023-05-21T12:52:34.337Z,32.64
2023-05-21T12:53:34.489Z,32.64
2023-05-21T12:54:34.709Z,32.64